createdAt,value
2022-10-01T00:01:39.804Z,7.50
2022-10-01T00:06:41.157Z,7.30
2022-10-01T00:11:42.789Z,6.40
2022-10-01T00:16:44.250Z,6.30
2022-10-01T00:21:45.754Z,5.55
2022-10-01T00:26:48.111Z,5.53
2022-10-01T00:31:49.624Z,5.40
2022-10-01T00:36:50.993Z,5.30
2022-10-01T00:41:52.614Z,4.05
2022-10-01T00:46:54.673Z,3.90
2022-10-01T00:51:58.250Z,4.13
2022-10-01T00:57:00.669Z,4.60
2022-10-01T01:02:02.014Z,4.63
2022-10-01T01:07:04.076Z,4.63
2022-10-01T01:12:05.611Z,4.80
2022-10-01T01:17:11.319Z,4.23
2022-10-01T01:22:14.145Z,4.28
2022-10-01T01:27:18.645Z,3.87
2022-10-01T01:32:24.190Z,3.65
2022-10-01T01:37:27.500Z,4.43
2022-10-01T01:42:37.123Z,4.40
2022-10-01T01:47:39.814Z,3.70
2022-10-01T01:52:41.370Z,4.43
2022-10-01T01:57:44.116Z,3.63
2022-10-01T02:02:49.741Z,3.95
2022-10-01T02:08:27.807Z,4.17
2022-10-01T02:14:00.104Z,3.67
2022-10-01T02:19:05.604Z,3.57
2022-10-01T02:24:09.394Z,3.55
2022-10-01T02:29:13.223Z,3.53
2022-10-01T02:34:19.964Z,3.77
2022-10-01T02:39:22.942Z,3.40
2022-10-01T02:44:27.166Z,3.67
2022-10-01T02:49:31.958Z,3.25
2022-10-01T02:54:42.919Z,3.25
2022-10-01T02:59:44.745Z,3.37
2022-10-01T03:04:47.983Z,3.45
2022-10-01T03:09:49.520Z,3.37
2022-10-01T03:14:50.913Z,3.15
2022-10-01T03:19:52.228Z,3.17
2022-10-01T03:24:53.792Z,3.27
2022-10-01T03:29:55.034Z,3.50
2022-10-01T03:34:56.284Z,3.50
2022-10-01T03:39:57.512Z,3.38
2022-10-01T03:44:58.725Z,3.95
2022-10-01T03:49:59.974Z,3.40
2022-10-01T03:55:01.257Z,3.92
2022-10-01T04:00:02.539Z,3.57
2022-10-01T04:05:04.020Z,3.50
2022-10-01T04:10:05.501Z,2.95
2022-10-01T04:15:06.948Z,3.70
2022-10-01T04:20:08.555Z,3.08
2022-10-01T04:25:10.770Z,2.80
2022-10-01T04:30:12.034Z,3.25
2022-10-01T04:35:13.888Z,2.67
2022-10-01T04:40:15.299Z,2.87
2022-10-01T04:45:16.538Z,2.63
2022-10-01T04:50:18.311Z,3.00
2022-10-01T04:55:20.689Z,2.95
2022-10-01T05:00:24.292Z,2.85
2022-10-01T05:05:30.173Z,2.57
2022-10-01T05:10:31.595Z,1.70
2022-10-01T05:15:32.927Z,1.27
2022-10-01T05:20:34.507Z,1.50
2022-10-01T05:25:35.756Z,1.20
2022-10-01T05:30:37.033Z,1.60
2022-10-01T05:35:38.523Z,1.20
2022-10-01T05:40:40.062Z,1.53
2022-10-01T05:45:42.083Z,1.20
2022-10-01T05:50:44.354Z,1.35
2022-10-01T05:55:45.762Z,1.60
2022-10-01T06:00:50.019Z,1.83
2022-10-01T06:05:52.565Z,2.20
2022-10-01T06:10:58.797Z,4.85
2022-10-01T06:16:00.373Z,2.38
2022-10-01T06:21:01.832Z,7.13
2022-10-01T06:26:07.935Z,3.83
2022-10-01T06:31:09.679Z,3.77
2022-10-01T06:36:11.103Z,3.45
2022-10-01T06:41:12.616Z,3.00
2022-10-01T06:46:14.042Z,3.27
2022-10-01T06:51:15.508Z,3.00
2022-10-01T06:56:16.819Z,4.43
2022-10-01T07:01:20.919Z,2.95
2022-10-01T07:06:23.078Z,3.17
2022-10-01T07:11:24.579Z,3.53
2022-10-01T07:16:25.939Z,7.50
2022-10-01T07:21:27.325Z,3.43
2022-10-01T07:26:28.608Z,2.88
2022-10-01T07:31:30.026Z,3.10
2022-10-01T07:36:31.332Z,2.80
2022-10-01T07:41:33.045Z,6.45
2022-10-01T07:46:34.935Z,3.20
2022-10-01T07:51:36.802Z,2.25
2022-10-01T07:56:38.236Z,2.47
2022-10-01T08:01:39.678Z,1.53
2022-10-01T08:06:41.173Z,1.40
2022-10-01T08:11:42.741Z,1.88
2022-10-01T08:16:44.074Z,1.80
2022-10-01T08:21:47.664Z,1.35
2022-10-01T08:26:53.406Z,1.20
2022-10-01T08:31:55.739Z,1.13
2022-10-01T08:36:57.063Z,1.20
2022-10-01T08:42:05.668Z,1.10
2022-10-01T08:47:18.512Z,1.20
2022-10-01T08:52:22.138Z,1.00
2022-10-01T08:57:37.727Z,1.00
2022-10-01T09:02:40.125Z,1.05
2022-10-01T09:07:59.730Z,1.00
2022-10-01T09:13:04.435Z,1.42
2022-10-01T09:18:23.612Z,1.05
2022-10-01T09:23:25.081Z,1.10
2022-10-01T09:28:30.970Z,1.08
2022-10-01T09:33:35.229Z,1.02
2022-10-01T09:38:39.314Z,0.97
2022-10-01T09:43:41.703Z,0.93
2022-10-01T09:48:43.669Z,0.90
2022-10-01T09:53:45.019Z,0.77
2022-10-01T09:58:50.487Z,0.90
2022-10-01T10:03:57.718Z,1.00
2022-10-01T10:09:02.542Z,0.90
2022-10-01T10:14:06.752Z,0.90
2022-10-01T10:19:15.989Z,0.80
2022-10-01T10:24:26.438Z,0.70
2022-10-01T10:29:34.739Z,1.00
2022-10-01T10:34:38.345Z,0.50
2022-10-01T10:39:41.065Z,0.60
2022-10-01T10:44:43.781Z,0.70
2022-10-01T10:49:46.877Z,0.70
2022-10-01T10:54:49.509Z,0.68
2022-10-01T11:00:02.757Z,0.40
2022-10-01T11:05:12.050Z,0.40
2022-10-01T11:10:28.761Z,0.50
2022-10-01T11:15:39.250Z,0.40
2022-10-01T11:20:40.740Z,0.50
2022-10-01T11:25:44.775Z,0.70
2022-10-01T11:31:06.407Z,0.30
2022-10-01T11:36:17.664Z,0.40
2022-10-01T11:41:28.836Z,0.60
2022-10-01T11:46:38.822Z,0.50
2022-10-01T11:51:49.365Z,0.50
2022-10-01T11:57:11.042Z,0.60
2022-10-01T12:02:23.738Z,0.67
2022-10-01T12:07:57.698Z,0.50
2022-10-01T12:13:04.374Z,0.47
2022-10-01T12:18:08.940Z,0.80
2022-10-01T12:23:14.884Z,0.60
2022-10-01T12:28:20.219Z,1.10
2022-10-01T12:33:32.632Z,0.50
2022-10-01T12:38:46.210Z,1.20
2022-10-01T12:44:01.442Z,0.80
2022-10-01T12:49:14.559Z,0.80
2022-10-01T12:54:18.945Z,1.17
2022-10-01T12:59:43.057Z,1.00
2022-10-01T13:04:44.694Z,1.00
2022-10-01T13:10:03.828Z,1.05
2022-10-01T13:15:06.834Z,0.80
2022-10-01T13:20:29.609Z,0.80
2022-10-01T13:25:37.439Z,1.08
2022-10-01T13:30:47.249Z,0.85
2022-10-01T13:35:53.591Z,0.93
2022-10-01T13:40:59.593Z,0.80
2022-10-01T13:46:05.725Z,0.98
2022-10-01T13:51:14.066Z,0.60
2022-10-01T13:56:28.484Z,0.80
2022-10-01T14:01:37.220Z,0.70
2022-10-01T14:06:42.642Z,0.90
2022-10-01T14:12:08.183Z,1.03
2022-10-01T14:17:10.485Z,1.00
2022-10-01T14:22:14.618Z,1.15
2022-10-01T14:27:16.108Z,1.10
2022-10-01T14:32:33.121Z,0.80
2022-10-01T14:37:37.843Z,0.70
2022-10-01T14:42:39.328Z,0.90
2022-10-01T14:47:40.611Z,0.75
2022-10-01T14:52:45.683Z,1.30
2022-10-01T14:57:49.512Z,0.73
2022-10-01T15:02:52.533Z,0.70
2022-10-01T15:07:54.042Z,0.73
2022-10-01T15:12:55.598Z,0.70
2022-10-01T15:17:57.139Z,1.10
2022-10-01T15:23:01.472Z,0.60
2022-10-01T15:28:13.170Z,0.90
2022-10-01T15:33:33.989Z,0.80
2022-10-01T15:38:36.143Z,0.90
2022-10-01T15:43:37.842Z,0.80
2022-10-01T15:48:39.209Z,1.23
2022-10-01T15:53:40.638Z,0.80
2022-10-01T15:58:47.713Z,0.60
2022-10-01T16:03:56.925Z,0.90
2022-10-01T16:09:06.366Z,1.55
2022-10-01T16:14:19.593Z,0.50
2022-10-01T16:19:28.631Z,0.90
2022-10-01T16:24:40.937Z,1.00
2022-10-01T16:29:43.415Z,0.70
2022-10-01T16:34:44.802Z,0.97
2022-10-01T16:39:46.079Z,0.88
2022-10-01T16:44:47.443Z,0.65
2022-10-01T16:49:50.247Z,0.70
2022-10-01T16:54:51.546Z,1.10
2022-10-01T16:59:52.831Z,1.00
2022-10-01T17:04:54.118Z,0.95
2022-10-01T17:09:55.476Z,1.80
2022-10-01T17:14:56.843Z,1.70
2022-10-01T17:19:58.194Z,1.55
2022-10-01T17:24:59.532Z,1.03
2022-10-01T17:30:00.835Z,1.20
2022-10-01T17:35:02.107Z,2.10
2022-10-01T17:40:04.253Z,2.10
2022-10-01T17:45:07.080Z,1.50
2022-10-01T17:50:08.490Z,1.67
2022-10-01T17:55:12.061Z,1.50
2022-10-01T18:00:13.439Z,1.40
2022-10-01T18:05:15.110Z,1.23
2022-10-01T18:10:16.518Z,1.30
2022-10-01T18:15:20.933Z,1.15
2022-10-01T18:20:22.668Z,1.08
2022-10-01T18:25:23.923Z,1.30
2022-10-01T18:30:25.181Z,1.17
2022-10-01T18:35:33.746Z,1.38
2022-10-01T18:40:39.455Z,1.10
2022-10-01T18:45:47.043Z,1.50
2022-10-01T18:51:07.219Z,1.33
2022-10-01T18:56:18.722Z,2.10
2022-10-01T19:01:38.921Z,1.70
2022-10-01T19:07:06.627Z,1.13
2022-10-01T19:12:17.061Z,1.07
2022-10-01T19:17:21.340Z,1.10
2022-10-01T19:22:33.411Z,1.10
2022-10-01T19:27:38.948Z,1.10
2022-10-01T19:32:44.031Z,1.20
2022-10-01T19:37:51.792Z,1.00
2022-10-01T19:43:00.902Z,1.10
2022-10-01T19:48:09.851Z,0.95
2022-10-01T19:53:26.094Z,1.37
2022-10-01T19:58:27.974Z,1.00
2022-10-01T20:03:29.203Z,1.00
2022-10-01T20:08:49.357Z,0.82
2022-10-01T20:14:01.086Z,1.00
2022-10-01T20:19:11.445Z,0.90
2022-10-01T20:24:31.702Z,1.40
2022-10-01T20:29:52.191Z,1.30
2022-10-01T20:35:13.008Z,1.20
2022-10-01T20:40:26.266Z,1.20
2022-10-01T20:45:28.536Z,1.30
2022-10-01T20:50:34.770Z,1.10
2022-10-01T20:55:41.368Z,1.30
2022-10-01T21:00:45.826Z,1.40
2022-10-01T21:05:55.446Z,1.40
2022-10-01T21:10:59.502Z,1.50
2022-10-01T21:16:03.987Z,1.20
2022-10-01T21:21:14.568Z,1.48
2022-10-01T21:26:25.395Z,1.38
2022-10-01T21:31:29.713Z,1.50
2022-10-01T21:36:37.965Z,1.25
2022-10-01T21:41:53.557Z,1.40
2022-10-01T21:47:05.190Z,1.83
2022-10-01T21:52:25.380Z,1.57
2022-10-01T21:57:32.738Z,1.20
2022-10-01T22:02:41.065Z,1.20
2022-10-01T22:07:49.542Z,1.10
2022-10-01T22:12:54.989Z,2.03
2022-10-01T22:17:57.252Z,1.30
2022-10-01T22:22:59.355Z,1.00
2022-10-01T22:28:06.004Z,1.50
2022-10-01T22:33:12.800Z,1.30
2022-10-01T22:38:20.741Z,1.33
2022-10-01T22:43:22.042Z,1.58
2022-10-01T22:48:33.471Z,1.30
2022-10-01T22:53:34.873Z,1.30
2022-10-01T22:58:51.565Z,1.60
2022-10-01T23:04:16.242Z,1.60
2022-10-01T23:09:25.433Z,1.40
2022-10-01T23:14:32.990Z,1.48
2022-10-01T23:20:12.265Z,1.23
2022-10-01T23:25:16.770Z,1.60
2022-10-01T23:30:19.476Z,1.50
2022-10-01T23:35:22.322Z,1.10
2022-10-01T23:40:27.735Z,1.50
2022-10-01T23:45:29.228Z,1.48
2022-10-01T23:50:49.312Z,1.50
2022-10-01T23:56:21.008Z,1.30
